createdAt,value
2019-03-23T10:38:19.090Z,4.20
2019-03-23T10:39:19.054Z,5.70
2019-03-23T10:40:19.042Z,9.70
2019-03-23T10:41:19.036Z,11.10
2019-03-23T10:42:19.013Z,11.70
2019-03-23T10:43:19.023Z,10.90
2019-03-23T10:44:19.009Z,12.10
2019-03-23T10:45:18.978Z,10.50
2019-03-23T10:46:18.975Z,11.90
2019-03-23T10:47:18.991Z,12.90
2019-03-23T10:48:18.933Z,12.00
2019-03-23T10:49:18.949Z,11.60
2019-03-23T10:50:18.923Z,11.60
2019-03-23T10:51:18.921Z,12.20
2019-03-23T10:52:18.890Z,12.30
2019-03-23T10:53:23.085Z,11.40
2019-03-23T10:54:19.056Z,11.10
2019-03-23T10:55:19.070Z,12.60
2019-03-23T10:56:18.844Z,12.20
2019-03-23T10:57:18.841Z,12.30
2019-03-23T10:58:18.821Z,14.30
2019-03-23T10:59:18.853Z,10.90
2019-03-23T11:00:18.816Z,10.80
2019-03-23T11:01:18.796Z,11.90
2019-03-23T11:02:18.780Z,13.10
2019-03-23T11:03:18.785Z,11.20
2019-03-23T11:04:18.795Z,11.90
2019-03-23T11:05:18.747Z,13.60
2019-03-23T11:06:18.733Z,10.70
2019-03-23T11:07:18.739Z,12.50
2019-03-23T11:08:18.738Z,11.40
2019-03-23T11:09:18.735Z,12.50
2019-03-23T11:10:18.695Z,14.00
2019-03-23T11:11:18.680Z,12.50
2019-03-23T11:12:18.668Z,13.60
2019-03-23T11:13:18.655Z,12.80
2019-03-23T11:14:18.680Z,13.40
2019-03-23T11:15:18.633Z,13.60
2019-03-23T11:16:18.620Z,13.20
2019-03-23T11:17:18.609Z,13.80
2019-03-23T11:18:18.613Z,11.60
2019-03-23T11:19:18.595Z,13.70
2019-03-23T11:20:18.697Z,12.50
2019-03-23T11:21:18.568Z,12.70
2019-03-23T11:22:18.556Z,13.10
2019-03-23T11:23:18.545Z,12.30
2019-03-23T11:24:18.534Z,13.00
2019-03-23T11:25:18.534Z,13.60
2019-03-23T11:26:18.552Z,12.50
2019-03-23T11:27:18.498Z,11.80
2019-03-23T11:28:18.488Z,13.10
2019-03-23T11:29:18.505Z,12.90
2019-03-23T11:30:18.470Z,11.70
2019-03-23T11:31:18.486Z,12.60
2019-03-23T11:32:18.450Z,11.00
2019-03-23T11:33:18.430Z,13.10
2019-03-23T11:34:18.428Z,12.90
2019-03-23T11:35:18.534Z,12.70
2019-03-23T11:36:18.414Z,11.10
2019-03-23T11:37:18.541Z,12.40
2019-03-23T11:38:18.375Z,11.80
2019-03-23T11:39:18.371Z,11.10
2019-03-23T11:40:18.395Z,13.10
2019-03-23T11:41:18.355Z,12.90
2019-03-23T11:42:18.356Z,12.40
2019-03-23T11:43:18.324Z,12.00
2019-03-23T11:44:18.310Z,12.60
2019-03-23T11:45:18.334Z,14.30
2019-03-23T11:46:18.295Z,13.80
2019-03-23T11:47:18.283Z,12.60
2019-03-23T11:48:18.263Z,12.70
2019-03-23T11:49:18.254Z,12.20
2019-03-23T11:50:18.243Z,13.30
2019-03-23T11:51:18.257Z,11.90
2019-03-23T11:52:18.220Z,13.20
2019-03-23T11:54:19.310Z,13.30
2019-03-23T11:55:18.187Z,12.10
2019-03-23T11:56:18.201Z,13.50
2019-03-23T11:57:18.201Z,13.80
2019-03-23T11:58:18.153Z,13.90
2019-03-23T11:59:18.153Z,13.10
2019-03-23T12:00:18.135Z,14.00
2019-03-23T12:01:18.145Z,12.30
2019-03-23T12:02:18.104Z,12.20
2019-03-23T12:03:18.103Z,12.70
2019-03-23T12:04:18.100Z,13.10
2019-03-23T12:05:18.078Z,12.80
2019-03-23T12:06:18.519Z,11.10
2019-03-23T12:07:18.072Z,12.30
2019-03-23T12:08:18.429Z,12.30
2019-03-23T12:09:18.029Z,12.30
2019-03-23T12:10:18.031Z,13.80
2019-03-23T12:11:18.008Z,12.60
2019-03-23T12:12:18.023Z,13.40
2019-03-23T12:13:17.985Z,12.10
2019-03-23T12:14:17.985Z,13.10
2019-03-23T12:15:17.972Z,12.70
2019-03-23T12:16:17.979Z,13.00
2019-03-23T12:17:17.947Z,13.50
2019-03-23T12:18:17.926Z,13.50
2019-03-23T12:19:17.928Z,12.70
2019-03-23T12:20:17.909Z,13.60
2019-03-23T12:21:18.062Z,13.80
2019-03-23T12:22:17.889Z,13.00
2019-03-23T12:23:17.929Z,14.20
2019-03-23T12:24:17.860Z,13.90
2019-03-23T12:25:17.860Z,13.10
2019-03-23T12:26:17.871Z,12.00
2019-03-23T12:27:17.835Z,12.80
2019-03-23T12:28:17.850Z,14.10
2019-03-23T12:29:17.810Z,13.60
2019-03-23T12:30:17.796Z,12.20
2019-03-23T12:31:17.840Z,12.10
2019-03-23T12:32:17.812Z,13.50
2019-03-23T12:33:17.803Z,13.70
2019-03-23T12:34:17.931Z,13.60
2019-03-23T12:35:17.737Z,13.70
2019-03-23T12:36:17.728Z,13.60
